Time;durP1;ratioP1;P1;durP2;ratioP2;P2;SDS_P1;SDS_P2;PMS_P1;PMS_P2;Temp;Humidity;BMP_temperature;BMP_pressure;BME280_temperature;BME280_humidity;BME280_pressure;Samples;Min_cycle;Max_cycle;Signal;HPM_P1;HPM_P2
2021/01/30 00:02:05;;;;;;;0.40;0.40;;;0.50;99.90;;;;;;4400877;32;20503;-72
2021/01/30 00:04:31;;;;;;;2.33;1.33;;;0.50;99.90;;;;;;4399975;32;20071;-73
2021/01/30 00:06:57;;;;;;;0.40;0.40;;;0.50;99.90;;;;;;4402314;32;20507;-73
2021/01/30 00:09:25;;;;;;;0.40;0.40;;;0.50;99.90;;;;;;4414816;32;20062;-73
2021/01/30 00:11:55;;;;;;;0.40;0.40;;;0.40;99.90;;;;;;4415971;32;20510;-73
2021/01/30 00:14:24;;;;;;;1.45;1.35;;;0.50;99.90;;;;;;4414772;32;20065;-73
2021/01/30 00:16:50;;;;;;;0.60;0.60;;;0.40;99.90;;;;;;4413999;32;20082;-73
2021/01/30 00:19:16;;;;;;;0.47;0.47;;;0.40;99.90;;;;;;4414280;32;20075;-73
2021/01/30 00:21:48;;;;;;;0.57;0.57;;;0.30;99.90;;;;;;4414490;32;20062;-73
2021/01/30 00:24:13;;;;;;;2.83;1.40;;;0.30;99.90;;;;;;4415557;32;20137;-73
2021/01/30 00:26:39;;;;;;;0.85;0.85;;;0.40;99.90;;;;;;4414492;32;20098;-73
2021/01/30 00:29:04;;;;;;;0.52;0.52;;;0.40;99.90;;;;;;4414480;32;20083;-73
2021/01/30 00:31:30;;;;;;;0.60;0.60;;;0.50;99.90;;;;;;4414551;32;20069;-73
2021/01/30 00:33:55;;;;;;;0.62;0.62;;;0.40;99.90;;;;;;4414419;32;20417;-73
2021/01/30 00:36:21;;;;;;;0.35;0.35;;;0.50;99.90;;;;;;4413850;32;20073;-73
2021/01/30 00:38:46;;;;;;;1.40;1.30;;;0.40;99.90;;;;;;4414462;32;20081;-73
2021/01/30 00:41:12;;;;;;;0.95;0.95;;;0.30;99.90;;;;;;4414806;32;20079;-73
2021/01/30 00:43:37;;;;;;;0.62;0.62;;;0.40;99.90;;;;;;4414921;32;20131;-73
2021/01/30 00:46:03;;;;;;;0.80;0.75;;;0.40;99.90;;;;;;4414364;32;20083;-73
2021/01/30 00:48:28;;;;;;;0.70;0.70;;;0.40;99.90;;;;;;4413835;32;20099;-73
2021/01/30 00:50:54;;;;;;;1.10;1.00;;;0.30;99.90;;;;;;4414512;32;20073;-73
2021/01/30 00:53:19;;;;;;;1.30;1.20;;;0.20;99.90;;;;;;4414061;32;20069;-73
2021/01/30 00:55:45;;;;;;;0.43;0.43;;;0.10;99.90;;;;;;4414101;32;20510;-73
2021/01/30 00:58:10;;;;;;;1.75;1.35;;;0.20;99.90;;;;;;4414032;32;20128;-73
2021/01/30 01:00:35;;;;;;;1.62;1.52;;;0.10;99.90;;;;;;4414975;32;20498;-73
2021/01/30 01:03:01;;;;;;;0.40;0.40;;;0.20;99.90;;;;;;4415362;32;20452;-73
2021/01/30 01:05:26;;;;;;;0.43;0.43;;;0.30;99.90;;;;;;4414569;32;20076;-73
2021/01/30 01:07:52;;;;;;;1.35;1.25;;;0.20;99.90;;;;;;4414007;32;20536;-73
2021/01/30 01:10:20;;;;;;;0.40;0.40;;;0.30;99.90;;;;;;4414566;32;20081;-73
2021/01/30 01:12:46;;;;;;;0.60;0.60;;;0.30;99.90;;;;;;4413799;32;20082;-73
2021/01/30 01:15:13;;;;;;;1.10;0.95;;;0.20;99.90;;;;;;4414072;32;20511;-73
2021/01/30 01:17:38;;;;;;;9.25;1.48;;;0.30;99.90;;;;;;4413772;32;20456;-73
2021/01/30 01:20:07;;;;;;;0.60;0.60;;;0.30;99.90;;;;;;4414287;32;20450;-73
2021/01/30 01:22:32;;;;;;;0.90;0.90;;;0.30;99.90;;;;;;4414108;32;20070;-73
2021/01/30 01:24:57;;;;;;;0.62;0.62;;;0.30;99.90;;;;;;4414168;32;20454;-73
2021/01/30 01:27:23;;;;;;;0.50;0.50;;;0.30;99.90;;;;;;4414009;32;20247;-73
2021/01/30 01:29:48;;;;;;;1.65;1.27;;;0.20;99.90;;;;;;4414010;32;20512;-73
2021/01/30 01:32:15;;;;;;;1.27;1.17;;;0.10;99.90;;;;;;4416793;32;20065;-73
2021/01/30 01:34:42;;;;;;;0.77;0.77;;;0.10;99.90;;;;;;4416238;32;20490;-73
2021/01/30 01:37:08;;;;;;;1.37;0.85;;;0.10;99.90;;;;;;4417129;32;20065;-72
2021/01/30 01:39:34;;;;;;;0.82;0.60;;;0.10;99.90;;;;;;4416365;32;20082;-72
2021/01/30 01:42:09;;;;;;;0.50;0.50;;;0.20;99.90;;;;;;4416772;32;20069;-72
2021/01/30 01:44:35;;;;;;;0.57;0.57;;;0.20;99.90;;;;;;4416652;32;20065;-73
2021/01/30 01:47:02;;;;;;;0.70;0.70;;;0.30;99.90;;;;;;4417303;32;20078;-73
2021/01/30 01:49:33;;;;;;;0.95;0.95;;;0.30;99.90;;;;;;4416104;32;20421;-73
2021/01/30 01:52:03;;;;;;;0.70;0.70;;;0.30;99.90;;;;;;4416629;32;20057;-73
2021/01/30 01:54:31;;;;;;;0.60;0.60;;;0.40;99.90;;;;;;4416525;32;20133;-73
2021/01/30 01:57:06;;;;;;;5.80;1.62;;;0.40;99.90;;;;;;4416531;32;20113;-73
2021/01/30 01:59:32;;;;;;;1.52;1.42;;;0.40;99.90;;;;;;4416277;32;20090;-73
2021/01/30 02:01:58;;;;;;;0.40;0.40;;;0.30;99.90;;;;;;4416491;32;20510;-73
2021/01/30 02:04:23;;;;;;;0.68;0.68;;;0.30;99.90;;;;;;4416492;32;20166;-73
2021/01/30 02:06:51;;;;;;;0.50;0.50;;;0.20;99.90;;;;;;4416040;32;20077;-73
2021/01/30 02:09:20;;;;;;;0.43;0.43;;;0.10;99.90;;;;;;4416227;32;20077;-73
2021/01/30 02:12:03;;;;;;;0.60;0.60;;;0.20;99.90;;;;;;4416343;32;20121;-73
2021/01/30 02:14:32;;;;;;;1.95;1.35;;;0.20;99.90;;;;;;4416529;32;20066;-73
2021/01/30 02:17:08;;;;;;;0.52;0.52;;;0.30;99.90;;;;;;4415730;32;20070;-73
2021/01/30 02:20:05;;;;;;;1.15;1.05;;;0.20;99.90;;;;;;4415713;32;20108;-73
2021/01/30 02:22:53;;;;;;;0.82;0.82;;;0.10;99.90;;;;;;4404611;32;20417;-73
2021/01/30 02:25:40;;;;;;;0.55;0.55;;;0.20;99.90;;;;;;4404797;32;20397;-73
2021/01/30 02:28:17;;;;;;;0.30;0.30;;;0.10;99.90;;;;;;4404360;32;20078;-73
2021/01/30 02:31:17;;;;;;;0.90;0.90;;;0.10;99.90;;;;;;4416823;32;20065;-73
2021/01/30 02:34:09;;;;;;;0.80;0.80;;;0.20;99.90;;;;;;4406190;32;20408;-73
2021/01/30 02:36:47;;;;;;;0.45;0.45;;;0.30;99.90;;;;;;4415400;32;20070;-73
2021/01/30 02:39:45;;;;;;;0.88;0.80;;;0.30;99.90;;;;;;4415552;32;20081;-73
2021/01/30 02:42:18;;;;;;;0.40;0.40;;;0.20;99.90;;;;;;4405512;32;20076;-73
2021/01/30 02:45:05;;;;;;;0.55;0.55;;;0.30;99.90;;;;;;4415865;32;20086;-73
2021/01/30 02:47:39;;;;;;;2.17;1.35;;;0.30;99.90;;;;;;4403642;32;20102;-73
2021/01/30 02:50:17;;;;;;;2.78;1.77;;;0.20;99.90;;;;;;4415531;32;20061;-73
2021/01/30 02:52:44;;;;;;;0.50;0.50;;;0.10;99.90;;;;;;4415617;32;20152;-73
2021/01/30 02:55:12;;;;;;;0.30;0.30;;;0.20;99.90;;;;;;4415699;32;20090;-73
2021/01/30 02:57:40;;;;;;;6.22;2.28;;;0.30;99.90;;;;;;4416556;32;20070;-73
2021/01/30 03:00:09;;;;;;;0.50;0.50;;;0.30;99.90;;;;;;4416765;32;20073;-73
2021/01/30 03:02:35;;;;;;;0.40;0.40;;;0.30;99.90;;;;;;4415707;32;20510;-73
2021/01/30 03:05:01;;;;;;;0.95;0.90;;;0.30;99.90;;;;;;4415292;32;20066;-73
2021/01/30 03:07:53;;;;;;;1.23;1.12;;;0.40;99.90;;;;;;4416546;32;20536;-73
2021/01/30 03:10:40;;;;;;;0.45;0.45;;;0.40;99.90;;;;;;4405351;32;20061;-73
2021/01/30 03:13:28;;;;;;;0.68;0.68;;;0.40;99.90;;;;;;4415274;32;20085;-73
2021/01/30 03:16:01;;;;;;;0.65;0.65;;;0.40;99.90;;;;;;4415478;32;20070;-73
2021/01/30 03:18:34;;;;;;;0.70;0.70;;;0.50;99.90;;;;;;4415233;32;20073;-73
2021/01/30 03:21:02;;;;;;;0.70;0.70;;;0.50;99.90;;;;;;4415304;32;20069;-72
2021/01/30 03:23:28;;;;;;;1.77;0.88;;;0.60;99.90;;;;;;4415281;32;20089;-72
2021/01/30 03:25:55;;;;;;;0.88;0.88;;;0.70;99.90;;;;;;4416829;32;20069;-72
2021/01/30 03:28:21;;;;;;;0.50;0.50;;;0.60;99.90;;;;;;4415287;32;20065;-72
2021/01/30 03:30:47;;;;;;;0.60;0.60;;;0.60;99.90;;;;;;4415692;32;20069;-72
2021/01/30 03:33:13;;;;;;;1.55;1.20;;;0.60;99.90;;;;;;4416365;32;20085;-72
2021/01/30 03:35:38;;;;;;;0.70;0.70;;;0.50;99.90;;;;;;4415656;32;20066;-72
2021/01/30 03:38:04;;;;;;;0.62;0.62;;;0.40;99.90;;;;;;4415269;32;20086;-72
2021/01/30 03:40:30;;;;;;;0.40;0.40;;;0.40;99.90;;;;;;4415631;32;20078;-73
2021/01/30 03:42:56;;;;;;;0.52;0.52;;;0.30;99.90;;;;;;4416239;32;20081;-72
2021/01/30 03:45:26;;;;;;;0.60;0.60;;;0.30;99.90;;;;;;4415288;32;20492;-72
2021/01/30 03:47:52;;;;;;;;;;;0.30;99.90;;;;;;4414489;32;20070;-72
2021/01/30 03:50:18;;;;;;;0.60;0.60;;;0.40;99.90;;;;;;4415533;32;19951;-72
2021/01/30 03:52:44;;;;;;;0.73;0.73;;;0.50;99.90;;;;;;4415407;32;20066;-72
2021/01/30 03:55:10;;;;;;;0.93;0.93;;;0.40;99.90;;;;;;4414945;32;20198;-72
2021/01/30 03:57:36;;;;;;;0.85;0.85;;;0.50;99.90;;;;;;4415083;32;20065;-72
2021/01/30 04:00:06;;;;;;;1.02;0.88;;;0.50;99.90;;;;;;4415042;32;20054;-73
2021/01/30 04:02:32;;;;;;;0.70;0.70;;;0.50;99.90;;;;;;4414704;32;20065;-72
2021/01/30 04:04:57;;;;;;;2.35;1.30;;;0.50;99.90;;;;;;4413912;32;20241;-72
2021/01/30 04:07:22;;;;;;;0.50;0.50;;;0.50;99.90;;;;;;4415012;32;20405;-73
2021/01/30 04:09:48;;;;;;;1.33;1.23;;;0.60;99.90;;;;;;4414792;32;20082;-72
2021/01/30 04:12:14;;;;;;;1.05;0.95;;;0.50;99.90;;;;;;4415514;32;20377;-73
2021/01/30 04:14:39;;;;;;;0.47;0.47;;;0.50;99.90;;;;;;4414842;32;20062;-72
2021/01/30 04:17:05;;;;;;;0.60;0.60;;;0.50;99.90;;;;;;4414446;32;20081;-73
2021/01/30 04:19:30;;;;;;;1.27;1.17;;;0.50;99.90;;;;;;4414176;32;20075;-72
2021/01/30 04:21:56;;;;;;;0.40;0.40;;;0.50;99.90;;;;;;4414959;32;20066;-73
2021/01/30 04:24:21;;;;;;;0.40;0.40;;;0.50;99.90;;;;;;4415756;32;20123;-73
2021/01/30 04:26:49;;;;;;;0.40;0.40;;;0.50;99.90;;;;;;4415314;32;20116;-73
2021/01/30 04:29:15;;;;;;;0.95;0.62;;;0.50;99.90;;;;;;4414958;32;20120;-74
2021/01/30 04:31:41;;;;;;;0.47;0.47;;;0.50;99.90;;;;;;4415060;32;20087;-73
2021/01/30 04:34:07;;;;;;;0.52;0.52;;;0.50;99.90;;;;;;4414167;32;20065;-73
2021/01/30 04:36:33;;;;;;;0.70;0.70;;;0.50;99.90;;;;;;4414121;32;20134;-74
2021/01/30 04:38:58;;;;;;;0.60;0.60;;;0.50;99.90;;;;;;4414960;32;20065;-73
2021/01/30 04:42:02;;;;;;;0.60;0.60;;;0.50;99.90;;;;;;4414730;32;20079;-73
2021/01/30 04:44:43;;;;;;;0.75;0.75;;;0.50;99.90;;;;;;4404973;32;20116;-73
2021/01/30 04:47:26;;;;;;;0.50;0.50;;;0.40;99.90;;;;;;4414201;32;20568;-73
2021/01/30 04:50:05;;;;;;;0.60;0.60;;;0.50;99.90;;;;;;4414391;32;20403;-73
2021/01/30 04:52:37;;;;;;;0.77;0.77;;;0.50;99.90;;;;;;4415453;32;20095;-73
2021/01/30 04:55:27;;;;;;;0.68;0.68;;;0.50;99.90;;;;;;4414958;32;20531;-74
2021/01/30 04:58:00;;;;;;;1.45;1.15;;;0.50;99.90;;;;;;4404025;32;20064;-73
2021/01/30 05:01:05;;;;;;;0.40;0.40;;;0.50;99.90;;;;;;4414449;32;20065;-73
2021/01/30 05:03:59;;;;;;;0.52;0.52;;;0.50;99.90;;;;;;4394434;32;20069;-73
2021/01/30 05:06:39;;;;;;;0.90;0.90;;;0.50;99.90;;;;;;4402397;32;20069;-73
2021/01/30 05:09:13;;;;;;;0.87;0.87;;;0.50;99.90;;;;;;4398646;32;20085;-73
2021/01/30 05:11:41;;;;;;;0.68;0.68;;;0.50;99.90;;;;;;4398969;32;20310;-73
2021/01/30 05:14:13;;;;;;;0.82;0.82;;;0.40;99.90;;;;;;4398988;32;20137;-73
2021/01/30 05:16:57;;;;;;;17.52;1.50;;;0.50;99.90;;;;;;4398255;32;20093;-73
2021/01/30 05:19:24;;;;;;;0.40;0.40;;;0.50;99.90;;;;;;4402557;32;20106;-73
2021/01/30 05:21:55;;;;;;;1.10;0.88;;;0.60;99.90;;;;;;4415861;32;20090;-73
2021/01/30 05:24:24;;;;;;;0.40;0.40;;;0.60;99.90;;;;;;4413976;32;20143;-73
2021/01/30 05:27:17;;;;;;;0.70;0.70;;;0.50;99.90;;;;;;4414254;32;20058;-73
2021/01/30 05:29:50;;;;;;;0.40;0.40;;;0.50;99.90;;;;;;4403758;32;20124;-73
2021/01/30 05:32:24;;;;;;;0.75;0.75;;;0.60;99.90;;;;;;4414817;32;20089;-73
2021/01/30 05:34:55;;;;;;;0.47;0.47;;;0.60;99.90;;;;;;4414570;32;20062;-73
2021/01/30 05:37:27;;;;;;;1.30;1.05;;;0.60;99.90;;;;;;4413867;32;20223;-73
2021/01/30 05:40:22;;;;;;;0.47;0.47;;;0.60;99.90;;;;;;4414636;32;20380;-73
2021/01/30 05:43:15;;;;;;;2.92;0.80;;;0.60;99.90;;;;;;4402868;32;20125;-73
2021/01/30 05:45:49;;;;;;;0.50;0.50;;;0.60;99.90;;;;;;4403320;32;20074;-73
2021/01/30 05:48:20;;;;;;;0.50;0.50;;;0.50;99.90;;;;;;4413130;32;20177;-73
2021/01/30 05:51:01;;;;;;;1.65;1.20;;;0.60;99.90;;;;;;4413422;32;20065;-73
2021/01/30 05:53:27;;;;;;;0.60;0.60;;;0.50;99.90;;;;;;4413743;32;20061;-73
2021/01/30 05:55:55;;;;;;;0.57;0.57;;;0.60;99.90;;;;;;4413739;32;20127;-73
2021/01/30 05:58:23;;;;;;;0.70;0.70;;;0.60;99.90;;;;;;4413624;32;20066;-73
2021/01/30 06:00:49;;;;;;;0.90;0.90;;;0.60;99.90;;;;;;4414075;32;20125;-73
2021/01/30 06:03:17;;;;;;;0.75;0.75;;;0.50;99.90;;;;;;4413972;32;20069;-73
2021/01/30 06:05:46;;;;;;;1.60;1.50;;;0.50;99.90;;;;;;4413024;32;20081;-73
2021/01/30 06:08:16;;;;;;;0.62;0.62;;;0.60;99.90;;;;;;4413275;32;20078;-73
2021/01/30 06:10:43;;;;;;;0.35;0.35;;;0.50;99.90;;;;;;4413396;32;20073;-73
2021/01/30 06:13:16;;;;;;;2.62;0.93;;;0.60;99.90;;;;;;4414050;32;20069;-73
2021/01/30 06:15:45;;;;;;;4.90;1.27;;;0.60;99.90;;;;;;4413852;32;20065;-73
2021/01/30 06:18:35;;;;;;;0.95;0.95;;;0.70;99.90;;;;;;4415948;32;20074;-73
2021/01/30 06:21:19;;;;;;;0.47;0.47;;;0.70;99.90;;;;;;4415703;32;20085;-73
2021/01/30 06:24:02;;;;;;;0.57;0.57;;;0.80;99.90;;;;;;4416340;32;20070;-73
2021/01/30 06:26:29;;;;;;;0.40;0.40;;;0.70;99.90;;;;;;4415812;32;20094;-73
2021/01/30 06:29:02;;;;;;;0.70;0.70;;;0.60;99.90;;;;;;4416290;32;20096;-73
2021/01/30 06:31:41;;;;;;;0.40;0.40;;;0.60;99.90;;;;;;4416022;32;20117;-73
2021/01/30 06:34:29;;;;;;;0.82;0.82;;;0.60;99.90;;;;;;4415942;32;20082;-73
2021/01/30 06:36:56;;;;;;;0.50;0.50;;;0.60;99.90;;;;;;4404304;32;20061;-73
2021/01/30 06:39:30;;;;;;;2.55;1.05;;;0.50;99.90;;;;;;4415890;32;20524;-73
2021/01/30 06:41:59;;;;;;;0.95;0.95;;;0.50;99.90;;;;;;4415484;32;20073;-73
2021/01/30 06:44:30;;;;;;;0.62;0.62;;;0.50;99.90;;;;;;4416065;32;20116;-73
2021/01/30 06:47:14;;;;;;;0.60;0.60;;;0.50;99.90;;;;;;4415182;32;20087;-73
2021/01/30 06:49:48;;;;;;;0.62;0.62;;;0.30;99.90;;;;;;4417125;32;20112;-73
2021/01/30 06:52:25;;;;;;;0.60;0.60;;;0.50;99.90;;;;;;4415888;32;20081;-73
2021/01/30 06:55:08;;;;;;;0.40;0.40;;;0.50;99.90;;;;;;4415848;32;20086;-73
2021/01/30 06:57:37;;;;;;;0.88;0.88;;;0.70;99.90;;;;;;4415711;32;20089;-73
2021/01/30 07:00:07;;;;;;;4.28;1.75;;;0.70;99.90;;;;;;4415919;32;20570;-73
2021/01/30 07:02:39;;;;;;;0.75;0.75;;;0.70;99.90;;;;;;4415634;32;20124;-73
2021/01/30 07:05:18;;;;;;;0.50;0.50;;;0.70;99.90;;;;;;4415081;32;20069;-73
2021/01/30 07:07:57;;;;;;;1.00;1.00;;;0.80;99.90;;;;;;4415748;32;20069;-73
2021/01/30 07:10:46;;;;;;;0.52;0.52;;;0.90;99.90;;;;;;4415527;32;20112;-73
2021/01/30 07:13:34;;;;;;;0.43;0.43;;;0.90;99.90;;;;;;4400872;32;20073;-73
2021/01/30 07:16:03;;;;;;;0.50;0.50;;;0.90;99.90;;;;;;4400161;32;20158;-73
2021/01/30 07:18:32;;;;;;;0.45;0.45;;;0.80;99.90;;;;;;4400680;32;20082;-73
2021/01/30 07:21:20;;;;;;;1.70;1.40;;;0.80;99.90;;;;;;4412846;32;20078;-73
2021/01/30 07:23:55;;;;;;;0.45;0.45;;;0.70;99.90;;;;;;4405477;32;20089;-73
2021/01/30 07:26:28;;;;;;;0.65;0.65;;;0.80;99.90;;;;;;4415383;32;20073;-73
2021/01/30 07:29:08;;;;;;;0.45;0.45;;;0.70;99.90;;;;;;4414443;32;20065;-73
2021/01/30 07:31:40;;;;;;;0.70;0.70;;;0.90;99.90;;;;;;4415096;32;20426;-73
2021/01/30 07:34:21;;;;;;;3.10;1.15;;;0.90;99.90;;;;;;4415979;32;20081;-73
2021/01/30 07:36:54;;;;;;;0.40;0.40;;;1.00;99.90;;;;;;4414673;32;20082;-73
2021/01/30 07:39:31;;;;;;;0.43;0.43;;;1.10;99.90;;;;;;4415035;32;20408;-73
2021/01/30 07:42:05;;;;;;;1.35;1.10;;;1.10;99.90;;;;;;4415406;32;20512;-73
2021/01/30 07:44:39;;;;;;;1.48;1.35;;;1.10;99.90;;;;;;4415040;32;20483;-73
2021/01/30 07:47:43;;;;;;;0.40;0.40;;;1.00;99.90;;;;;;4414647;32;20508;-73
2021/01/30 07:50:18;;;;;;;0.35;0.35;;;1.10;99.90;;;;;;4403557;32;20065;-73
2021/01/30 07:53:11;;;;;;;0.65;0.65;;;1.10;99.90;;;;;;4415303;32;20061;-73
2021/01/30 07:55:40;;;;;;;0.77;0.77;;;1.10;99.90;;;;;;4415636;32;20061;-73
2021/01/30 07:58:32;;;;;;;0.50;0.50;;;1.10;99.90;;;;;;4415729;32;20170;-73
2021/01/30 08:01:34;;;;;;;0.50;0.50;;;1.10;99.90;;;;;;4403871;32;20062;-73
2021/01/30 08:04:33;;;;;;;0.40;0.40;;;1.10;99.90;;;;;;4405869;32;20074;-73
2021/01/30 08:07:38;;;;;;;1.23;0.98;;;1.00;99.90;;;;;;4404623;32;20117;-73
2021/01/30 08:10:20;;;;;;;0.40;0.40;;;0.90;99.90;;;;;;4394960;32;20062;-73
2021/01/30 08:13:15;;;;;;;0.65;0.65;;;1.00;99.90;;;;;;4414491;32;20085;-73
2021/01/30 08:15:54;;;;;;;0.40;0.40;;;1.00;99.90;;;;;;4402653;32;20069;-73
2021/01/30 08:18:34;;;;;;;0.50;0.50;;;1.10;99.90;;;;;;4414194;32;20090;-73
2021/01/30 08:21:26;;;;;;;0.60;0.60;;;1.00;99.90;;;;;;4414010;32;20070;-73
2021/01/30 08:24:08;;;;;;;0.40;0.40;;;0.90;99.90;;;;;;4403286;32;20132;-73
2021/01/30 08:26:43;;;;;;;0.65;0.65;;;0.80;99.90;;;;;;4414955;32;20057;-73
2021/01/30 08:29:13;;;;;;;0.35;0.35;;;0.80;99.90;;;;;;4415454;32;20069;-73
2021/01/30 08:31:50;;;;;;;0.50;0.50;;;0.90;99.90;;;;;;4414796;32;20061;-73
2021/01/30 08:34:21;;;;;;;0.40;0.40;;;0.90;99.90;;;;;;4414290;32;20404;-73
2021/01/30 08:36:51;;;;;;;0.40;0.40;;;0.80;99.90;;;;;;4414831;32;20065;-73
2021/01/30 08:39:34;;;;;;;0.50;0.50;;;0.80;99.90;;;;;;4413873;32;20058;-73
2021/01/30 08:42:17;;;;;;;0.40;0.40;;;0.90;99.90;;;;;;4411601;32;94021;-73
2021/01/30 08:44:52;;;;;;;0.50;0.50;;;1.00;99.90;;;;;;4414508;32;20530;-73
2021/01/30 08:47:23;;;;;;;0.88;0.88;;;1.00;99.90;;;;;;4414137;32;20393;-73
2021/01/30 08:50:14;;;;;;;4.03;0.85;;;1.00;99.90;;;;;;4414060;32;20069;-73
2021/01/30 08:52:42;;;;;;;0.70;0.70;;;1.10;99.90;;;;;;4402998;32;20082;-73
2021/01/30 08:55:25;;;;;;;0.60;0.60;;;1.20;99.90;;;;;;4414804;32;20078;-73
2021/01/30 08:57:51;;;;;;;0.57;0.57;;;1.20;99.90;;;;;;4414808;32;20081;-73
2021/01/30 09:00:53;;;;;;;0.40;0.40;;;1.30;99.90;;;;;;4413879;32;20065;-73
2021/01/30 09:03:55;;;;;;;0.40;0.40;;;1.40;99.90;;;;;;4405110;32;20065;-73
2021/01/30 09:06:42;;;;;;;0.47;0.47;;;1.40;99.90;;;;;;4404664;32;20058;-73
2021/01/30 09:09:25;;;;;;;0.40;0.40;;;1.50;99.90;;;;;;4390346;32;20433;-74
2021/01/30 09:11:54;;;;;;;0.40;0.40;;;1.50;99.90;;;;;;4403795;32;20065;-74
2021/01/30 09:14:22;;;;;;;0.50;0.50;;;1.60;99.90;;;;;;4429294;32;20523;-74
2021/01/30 09:16:59;;;;;;;0.40;0.40;;;1.60;99.90;;;;;;4420719;32;20078;-74
2021/01/30 09:19:58;;;;;;;0.40;0.40;;;1.60;99.90;;;;;;4414102;32;20075;-74
2021/01/30 09:22:42;;;;;;;0.40;0.40;;;1.70;99.90;;;;;;4402311;32;20187;-74
2021/01/30 09:25:39;;;;;;;1.20;0.85;;;1.60;99.90;;;;;;4413786;32;20069;-73
2021/01/30 09:28:13;;;;;;;2.42;1.35;;;1.80;99.90;;;;;;4402429;32;20082;-74
2021/01/30 09:30:45;;;;;;;0.40;0.40;;;1.90;99.90;;;;;;4414538;32;20507;-74
2021/01/30 09:33:16;;;;;;;0.73;0.73;;;1.80;99.90;;;;;;4413810;32;20071;-74
2021/01/30 09:35:44;;;;;;;0.52;0.52;;;1.70;99.90;;;;;;4413684;32;20132;-74
2021/01/30 09:38:33;;;;;;;0.40;0.40;;;1.60;99.90;;;;;;4414101;32;20174;-74
2021/01/30 09:41:25;;;;;;;0.50;0.47;;;1.70;99.90;;;;;;4402512;32;20078;-74
2021/01/30 09:44:16;;;;;;;0.55;0.55;;;1.70;99.90;;;;;;4414213;32;20070;-74
2021/01/30 09:46:44;;;;;;;0.73;0.73;;;1.70;99.90;;;;;;4412991;32;20070;-74
2021/01/30 09:49:19;;;;;;;0.88;0.85;;;1.70;99.90;;;;;;4413500;32;20429;-74
2021/01/30 09:51:45;;;;;;;2.03;0.80;;;1.70;99.90;;;;;;4414649;32;20061;-74
2021/01/30 09:54:15;;;;;;;0.50;0.50;;;1.80;99.90;;;;;;4416516;32;20077;-74
2021/01/30 09:56:42;;;;;;;1.48;0.65;;;1.80;99.90;;;;;;4417126;32;20083;-74
2021/01/30 09:59:08;;;;;;;1.08;0.70;;;1.90;99.90;;;;;;4416649;32;20065;-74
2021/01/30 10:01:38;;;;;;;0.55;0.55;;;1.80;99.90;;;;;;4416519;32;20078;-74
2021/01/30 10:04:25;;;;;;;0.30;0.30;;;1.70;99.90;;;;;;4416559;32;20070;-74
2021/01/30 10:06:54;;;;;;;0.40;0.40;;;1.70;99.90;;;;;;4404202;32;20085;-74
2021/01/30 10:09:22;;;;;;;0.57;0.57;;;1.60;99.90;;;;;;4415970;32;20065;-74
2021/01/30 10:11:54;;;;;;;0.37;0.37;;;1.70;99.90;;;;;;4416243;32;20515;-74
2021/01/30 10:14:20;;;;;;;0.93;0.88;;;1.90;99.90;;;;;;4416230;32;20066;-74
2021/01/30 10:16:58;;;;;;;0.60;0.60;;;1.90;99.90;;;;;;4414952;32;20061;-74
2021/01/30 10:19:29;;;;;;;0.30;0.30;;;1.70;99.90;;;;;;4416029;32;20065;-74
2021/01/30 10:21:55;;;;;;;0.30;0.30;;;1.90;99.90;;;;;;4417045;32;20094;-74
2021/01/30 10:24:27;;;;;;;0.50;0.50;;;1.90;99.90;;;;;;4416792;32;20070;-74
2021/01/30 10:27:09;;;;;;;1.10;1.00;;;1.90;99.90;;;;;;4415991;32;20065;-74
2021/01/30 10:29:34;;;;;;;0.50;0.50;;;2.00;99.90;;;;;;4417378;32;20061;-74
2021/01/30 10:32:03;;;;;;;0.40;0.40;;;2.10;99.90;;;;;;4415602;32;20074;-74
2021/01/30 10:34:35;;;;;;;0.40;0.40;;;2.00;99.90;;;;;;4415688;32;20117;-74
2021/01/30 10:37:08;;;;;;;0.82;0.82;;;1.90;99.90;;;;;;4415287;32;20065;-74
2021/01/30 10:39:39;;;;;;;0.60;0.60;;;2.00;99.90;;;;;;4415845;32;20077;-74
2021/01/30 10:42:10;;;;;;;4.30;0.60;;;2.00;99.90;;;;;;4415540;32;20065;-74
2021/01/30 10:44:38;;;;;;;0.30;0.30;;;2.00;99.90;;;;;;4415925;32;20068;-74
2021/01/30 10:47:04;;;;;;;0.40;0.40;;;2.00;99.90;;;;;;4416155;32;20433;-74
2021/01/30 10:49:34;;;;;;;1.12;0.70;;;2.10;99.90;;;;;;4415417;32;20063;-74
2021/01/30 10:52:23;;;;;;;1.05;0.95;;;2.10;99.90;;;;;;4415288;32;20074;-74
2021/01/30 10:54:48;;;;;;;0.60;0.60;;;2.30;99.90;;;;;;4404887;32;20070;-74
2021/01/30 10:57:19;;;;;;;0.85;0.85;;;2.30;99.90;;;;;;4415888;32;20333;-74
2021/01/30 10:59:49;;;;;;;0.50;0.50;;;2.40;99.90;;;;;;4415468;32;20070;-74
2021/01/30 11:02:36;;;;;;;0.55;0.55;;;2.60;99.90;;;;;;4415284;32;20058;-74
2021/01/30 11:05:07;;;;;;;0.62;0.62;;;2.70;99.90;;;;;;4403520;32;20057;-74
2021/01/30 11:07:43;;;;;;;0.35;0.35;;;2.70;99.90;;;;;;4416664;32;20065;-74
2021/01/30 11:10:21;;;;;;;0.40;0.40;;;2.70;99.90;;;;;;4416082;32;20150;-74
2021/01/30 11:12:47;;;;;;;0.40;0.40;;;2.80;99.90;;;;;;4415101;32;20513;-74
2021/01/30 11:15:18;;;;;;;0.40;0.40;;;2.80;99.90;;;;;;4415879;32;20073;-74
2021/01/30 11:17:43;;;;;;;0.73;0.73;;;2.80;99.90;;;;;;4414800;32;20065;-74
2021/01/30 11:20:10;;;;;;;0.52;0.52;;;2.70;99.90;;;;;;4414841;32;20124;-74
2021/01/30 11:22:36;;;;;;;0.30;0.30;;;2.80;99.90;;;;;;4415318;32;20507;-74
2021/01/30 11:25:11;;;;;;;0.93;0.93;;;2.80;99.90;;;;;;4415124;32;20438;-74
2021/01/30 11:27:45;;;;;;;0.47;0.47;;;2.70;99.90;;;;;;4415381;32;20535;-74
2021/01/30 11:30:30;;;;;;;0.55;0.55;;;2.80;99.90;;;;;;4416271;32;20077;-74
2021/01/30 11:32:59;;;;;;;0.40;0.40;;;2.60;99.90;;;;;;4415069;32;20061;-74
2021/01/30 11:35:38;;;;;;;0.37;0.37;;;2.60;99.90;;;;;;4414555;32;20074;-74
2021/01/30 11:38:11;;;;;;;0.30;0.30;;;2.50;99.90;;;;;;4416244;32;20112;-74
2021/01/30 11:40:37;;;;;;;0.75;0.60;;;2.70;99.90;;;;;;4415816;32;20112;-74
2021/01/30 11:43:03;;;;;;;0.82;0.73;;;2.70;99.90;;;;;;4415189;32;20484;-74
2021/01/30 11:45:28;;;;;;;0.30;0.30;;;2.80;99.90;;;;;;4415279;32;20378;-74
2021/01/30 11:47:54;;;;;;;0.40;0.40;;;2.80;99.90;;;;;;4414358;32;20515;-75
2021/01/30 11:50:20;;;;;;;0.40;0.40;;;2.80;99.90;;;;;;4415488;32;20082;-74
2021/01/30 11:52:45;;;;;;;0.50;0.50;;;2.70;99.90;;;;;;4415230;32;20070;-74
2021/01/30 11:55:11;;;;;;;0.50;0.50;;;2.70;99.90;;;;;;4415457;32;20400;-74
2021/01/30 11:57:37;;;;;;;0.40;0.40;;;2.70;99.90;;;;;;4415068;32;20062;-74
2021/01/30 12:00:05;;;;;;;0.43;0.43;;;2.90;99.90;;;;;;4415002;32;20223;-74
2021/01/30 12:02:34;;;;;;;0.40;0.40;;;3.00;99.90;;;;;;4414997;32;20109;-74
2021/01/30 12:05:00;;;;;;;0.30;0.30;;;2.90;99.90;;;;;;4414531;32;20086;-74
2021/01/30 12:07:25;;;;;;;0.40;0.40;;;2.90;99.90;;;;;;4414673;32;20515;-74
2021/01/30 12:09:51;;;;;;;0.30;0.30;;;2.90;99.90;;;;;;4414823;32;20065;-74
2021/01/30 12:12:17;;;;;;;0.45;0.45;;;3.00;99.90;;;;;;4414604;32;20082;-74
2021/01/30 12:14:43;;;;;;;0.50;0.50;;;3.00;99.90;;;;;;4413877;32;20065;-74
2021/01/30 12:17:13;;;;;;;1.23;0.80;;;3.00;99.90;;;;;;4413921;32;20492;-74
2021/01/30 12:19:39;;;;;;;0.33;0.33;;;2.90;99.90;;;;;;4414017;32;20078;-74
2021/01/30 12:22:04;;;;;;;0.40;0.40;;;2.90;99.90;;;;;;4416030;32;20057;-74
2021/01/30 12:24:30;;;;;;;0.57;0.57;;;2.90;99.90;;;;;;4414815;32;20062;-77
2021/01/30 12:26:55;;;;;;;0.40;0.40;;;3.00;99.90;;;;;;4414867;32;20046;-74
2021/01/30 12:29:21;;;;;;;0.47;0.47;;;3.00;99.90;;;;;;4415176;32;20053;-74
2021/01/30 12:31:46;;;;;;;0.50;0.50;;;3.00;99.90;;;;;;4414484;32;20547;-74
2021/01/30 12:34:12;;;;;;;0.50;0.50;;;2.90;99.90;;;;;;4414302;32;20077;-74
2021/01/30 12:36:37;;;;;;;0.73;0.73;;;2.80;99.90;;;;;;4414139;32;20053;-74
2021/01/30 12:39:04;;;;;;;0.40;0.40;;;2.70;99.90;;;;;;4414341;32;20065;-74
2021/01/30 12:41:29;;;;;;;0.52;0.52;;;2.60;99.90;;;;;;4414988;32;20474;-74
2021/01/30 12:43:54;;;;;;;0.30;0.30;;;2.60;99.90;;;;;;4415644;32;20061;-74
2021/01/30 12:46:20;;;;;;;0.40;0.40;;;2.70;99.90;;;;;;4414571;32;20131;-74
2021/01/30 12:48:45;;;;;;;0.35;0.35;;;3.00;99.90;;;;;;4414094;32;20062;-74
2021/01/30 12:51:11;;;;;;;0.52;0.52;;;3.10;99.90;;;;;;4414753;32;20050;-74
2021/01/30 12:53:37;;;;;;;0.35;0.35;;;2.90;99.90;;;;;;4414043;32;20074;-72
2021/01/30 12:56:03;;;;;;;0.40;0.40;;;3.10;99.90;;;;;;4414162;32;20083;-72
2021/01/30 12:58:29;;;;;;;0.37;0.37;;;3.60;99.90;;;;;;4413839;32;20061;-72
2021/01/30 13:00:55;;;;;;;0.28;0.28;;;4.40;99.90;;;;;;4414059;32;20053;-73
2021/01/30 13:03:23;;;;;;;0.20;0.20;;;5.00;99.90;;;;;;4414702;32;20053;-73
2021/01/30 13:05:50;;;;;;;2.80;0.82;;;5.20;99.90;;;;;;4414293;32;20128;-72
2021/01/30 13:08:17;;;;;;;0.30;0.30;;;4.90;99.90;;;;;;4413796;32;20054;-73
2021/01/30 13:10:42;;;;;;;0.37;0.37;;;4.40;99.90;;;;;;4414155;32;20050;-72
2021/01/30 13:13:08;;;;;;;0.30;0.30;;;4.10;99.90;;;;;;4413604;32;20078;-72
2021/01/30 13:15:34;;;;;;;0.30;0.30;;;3.80;99.90;;;;;;4413934;32;20165;-72
2021/01/30 13:17:59;;;;;;;0.40;0.40;;;3.60;99.90;;;;;;4413320;32;20062;-73
2021/01/30 13:20:26;;;;;;;0.30;0.30;;;3.30;99.90;;;;;;4412872;32;20414;-72
2021/01/30 13:22:51;;;;;;;0.60;0.60;;;3.40;99.90;;;;;;4413642;32;20062;-73
2021/01/30 13:25:18;;;;;;;0.30;0.30;;;3.20;99.90;;;;;;4413404;32;20045;-74
2021/01/30 13:27:44;;;;;;;0.40;0.40;;;3.00;99.90;;;;;;4413366;32;20054;-72